createdAt,value
2019-04-07T00:01:45.831Z,96166.29
2019-04-07T00:04:14.587Z,96160.28
2019-04-07T00:06:42.970Z,96162.58
2019-04-07T00:09:11.945Z,96160.61
2019-04-07T00:11:40.423Z,96158.19
2019-04-07T00:14:08.814Z,96155.60
2019-04-07T00:16:37.357Z,96158.33
2019-04-07T00:19:06.572Z,96155.52
2019-04-07T00:21:35.271Z,96154.23
2019-04-07T00:24:03.774Z,96157.05
2019-04-07T00:26:32.162Z,96138.15
2019-04-07T00:29:01.578Z,96162.62
2019-04-07T00:31:30.173Z,96161.33
2019-04-07T00:33:59.299Z,96158.55
2019-04-07T00:36:27.897Z,96162.02
2019-04-07T00:38:56.254Z,96156.62
2019-04-07T00:41:24.846Z,96147.62
2019-04-07T00:43:53.201Z,96155.72
2019-04-07T00:46:21.852Z,96152.93
2019-04-07T00:48:50.254Z,96153.97
2019-04-07T00:51:18.789Z,96148.00
2019-04-07T00:53:47.105Z,96147.28
2019-04-07T00:56:15.819Z,96153.52
2019-04-07T00:58:44.539Z,96157.73
2019-04-07T01:01:15.175Z,96155.88
2019-04-07T01:03:43.606Z,96154.34
2019-04-07T01:06:12.001Z,96151.37
2019-04-07T01:08:40.381Z,96150.33
2019-04-07T01:11:08.881Z,96144.86
2019-04-07T01:13:37.372Z,96144.94
2019-04-07T01:16:05.696Z,96143.47
2019-04-07T01:18:35.464Z,96146.51
2019-04-07T01:21:03.883Z,96151.95
2019-04-07T01:23:32.515Z,96155.20
2019-04-07T01:26:00.983Z,96150.94
2019-04-07T01:28:29.518Z,96156.16
2019-04-07T01:30:59.070Z,96146.86
2019-04-07T01:33:27.747Z,96152.58
2019-04-07T01:35:56.410Z,96146.00
2019-04-07T01:38:24.866Z,96143.28
2019-04-07T01:40:55.363Z,96148.50
2019-04-07T01:43:28.116Z,96145.24
2019-04-07T01:46:07.018Z,96136.87
2019-04-07T01:48:52.098Z,96140.59
2019-04-07T01:51:31.303Z,96135.98
2019-04-07T01:54:03.853Z,96141.13
2019-04-07T01:56:33.870Z,96140.05
2019-04-07T01:59:11.249Z,96140.59
2019-04-07T02:01:41.729Z,96138.52
2019-04-07T02:07:14.516Z,96137.44
2019-04-07T02:09:59.810Z,96136.68
2019-04-07T02:12:46.591Z,96131.92
2019-04-07T02:15:19.194Z,96140.31
2019-04-07T02:17:58.264Z,96133.35
2019-04-07T02:20:40.018Z,96129.17
2019-04-07T02:23:12.794Z,96127.73
2019-04-07T02:25:44.097Z,96131.40
2019-04-07T02:28:23.038Z,96133.15
2019-04-07T02:31:08.108Z,96130.71
2019-04-07T02:33:40.818Z,96133.81
2019-04-07T02:36:18.193Z,96135.99
2019-04-07T02:38:42.683Z,96143.31
2019-04-07T02:41:12.704Z,96124.73
2019-04-07T02:43:55.618Z,96145.00
2019-04-07T02:46:38.220Z,96145.14
2019-04-07T02:49:14.169Z,96136.66
2019-04-07T02:51:56.359Z,96146.59
2019-04-07T02:54:36.054Z,96146.39
2019-04-07T02:57:24.357Z,96148.84
2019-04-07T02:59:54.433Z,96143.39
2019-04-07T03:02:41.166Z,96145.20
2019-04-07T03:05:20.963Z,96152.46
2019-04-07T03:07:53.729Z,96157.27
2019-04-07T03:10:24.976Z,96154.83
2019-04-07T03:13:07.395Z,96156.64
2019-04-07T03:15:44.157Z,96154.20
2019-04-07T03:18:27.098Z,96156.38
2019-04-07T03:21:13.101Z,96158.45
2019-04-07T03:23:46.152Z,96156.77
2019-04-07T03:26:32.470Z,96158.58
2019-04-07T03:29:05.740Z,96164.67
2019-04-07T03:31:38.991Z,96160.25
2019-04-07T03:34:12.389Z,96162.49
2019-04-07T03:37:32.229Z,96167.69
2019-04-07T03:39:34.561Z,96166.93
2019-04-07T03:44:51.291Z,96162.44
2019-04-07T03:47:22.262Z,96167.13
2019-04-07T03:49:52.942Z,96160.63
2019-04-07T03:52:26.692Z,96166.17
2019-04-07T03:55:13.399Z,96164.48
2019-04-07T03:57:50.667Z,96164.48
2019-04-07T04:00:42.254Z,96162.31
2019-04-07T04:03:12.880Z,96156.32
2019-04-07T04:05:43.387Z,96162.05
2019-04-07T04:08:16.047Z,96159.08
2019-04-07T04:10:48.841Z,96161.41
2019-04-07T04:13:27.842Z,96160.25
2019-04-07T04:16:00.964Z,96158.51
2019-04-07T04:18:29.328Z,96164.99
2019-04-07T04:20:57.705Z,96167.56
2019-04-07T04:23:26.149Z,96167.26
2019-04-07T04:25:54.547Z,96166.73
2019-04-07T04:28:23.692Z,96164.99
2019-04-07T04:30:52.343Z,96168.97
2019-04-07T04:33:20.753Z,96170.31
2019-04-07T04:35:49.155Z,96178.48
2019-04-07T04:38:17.809Z,96175.52
2019-04-07T04:40:46.281Z,96175.52
2019-04-07T04:43:15.558Z,96175.16
2019-04-07T04:45:44.880Z,96187.48
2019-04-07T04:48:13.393Z,96187.66
2019-04-07T04:50:42.131Z,96185.03
2019-04-07T04:53:10.808Z,96189.00
2019-04-07T04:55:39.299Z,96192.49
2019-04-07T04:58:08.770Z,96192.86
2019-04-07T05:00:38.456Z,96191.70
2019-04-07T05:03:07.197Z,96200.32
2019-04-07T05:05:35.789Z,96195.19
2019-04-07T05:08:05.513Z,96200.20
2019-04-07T05:10:34.830Z,96208.27
2019-04-07T05:13:03.268Z,96205.64
2019-04-07T05:15:32.559Z,96204.45
2019-04-07T05:18:01.648Z,96205.98
2019-04-07T05:20:30.181Z,96209.98
2019-04-07T05:22:58.670Z,96213.70
2019-04-07T05:25:27.412Z,96223.88
2019-04-07T05:27:55.894Z,96229.45
2019-04-07T05:30:24.248Z,96225.27
2019-04-07T05:32:52.634Z,96227.87
2019-04-07T05:35:21.027Z,96234.34
2019-04-07T05:38:00.170Z,96235.34
2019-04-07T05:40:20.116Z,96234.90
2019-04-07T05:42:48.503Z,96235.83
2019-04-07T05:45:17.290Z,96226.54
2019-04-07T05:47:48.720Z,96210.34
2019-04-07T05:50:16.693Z,96237.23
2019-04-07T05:52:45.087Z,96228.90
2019-04-07T05:55:14.243Z,96229.50
2019-04-07T05:57:43.157Z,96232.64
2019-04-07T06:00:15.598Z,96237.81
2019-04-07T06:02:44.100Z,96238.69
2019-04-07T06:05:12.478Z,96242.67
2019-04-07T06:07:41.567Z,96247.12
2019-04-07T06:10:11.209Z,96246.94
2019-04-07T06:12:43.263Z,96247.54
2019-04-07T06:15:09.857Z,96250.80
2019-04-07T06:17:38.921Z,96252.70
2019-04-07T06:20:12.118Z,96248.67
2019-04-07T06:22:38.110Z,96251.38
2019-04-07T06:25:07.307Z,96251.24
2019-04-07T06:27:35.861Z,96255.55
2019-04-07T06:30:08.343Z,96258.98
2019-04-07T06:32:38.389Z,96256.25
2019-04-07T06:35:07.666Z,96247.23
2019-04-07T06:37:36.315Z,96245.01
2019-04-07T06:40:06.446Z,96242.58
2019-04-07T06:42:35.452Z,96246.08
2019-04-07T06:45:06.794Z,96233.52
2019-04-07T06:47:46.224Z,96241.34
2019-04-07T06:50:16.877Z,96235.20
2019-04-07T06:52:49.667Z,96231.02
2019-04-07T06:55:20.107Z,96236.02
2019-04-07T06:58:08.303Z,96239.86
2019-04-07T07:00:41.199Z,96233.40
2019-04-07T07:03:11.615Z,96234.30
2019-04-07T07:05:45.352Z,96233.08
2019-04-07T07:08:21.060Z,96244.73
2019-04-07T07:10:53.262Z,96239.16
2019-04-07T07:13:36.815Z,96242.48
2019-04-07T07:16:10.138Z,96244.16
2019-04-07T07:18:41.345Z,96248.26
2019-04-07T07:21:26.073Z,96244.86
2019-04-07T07:23:54.449Z,96247.05
2019-04-07T07:26:23.412Z,96245.41
2019-04-07T07:28:52.117Z,96243.80
2019-04-07T07:31:25.260Z,96243.14
2019-04-07T07:33:50.655Z,96248.30
2019-04-07T07:36:21.518Z,96245.02
2019-04-07T07:38:57.586Z,96247.83
2019-04-07T07:41:22.202Z,96246.03
2019-04-07T07:43:49.337Z,96245.36
2019-04-07T07:46:20.535Z,96253.14
2019-04-07T07:48:47.834Z,96253.61
2019-04-07T07:51:16.458Z,96250.39
2019-04-07T07:53:44.986Z,96248.04
2019-04-07T07:56:14.267Z,96243.45
2019-04-07T07:58:42.684Z,96247.19
2019-04-07T08:01:13.541Z,96249.28
2019-04-07T08:03:41.450Z,96245.55
2019-04-07T08:06:09.805Z,96246.86
2019-04-07T08:08:38.191Z,96248.45
2019-04-07T08:11:06.788Z,96253.08
2019-04-07T08:13:42.125Z,96252.27
2019-04-07T08:16:06.331Z,96230.84
2019-04-07T08:18:37.126Z,96255.95
2019-04-07T08:21:05.556Z,96254.70
2019-04-07T08:23:34.139Z,96259.36
2019-04-07T08:26:02.801Z,96258.84
2019-04-07T08:28:33.680Z,96264.41
2019-04-07T08:31:01.894Z,96268.90
2019-04-07T08:33:30.438Z,96265.48
2019-04-07T08:35:58.940Z,96261.31
2019-04-07T08:38:28.335Z,96265.92
2019-04-07T08:40:57.537Z,96260.66
2019-04-07T08:43:26.489Z,96260.05
2019-04-07T08:45:55.366Z,96264.31
2019-04-07T08:48:23.866Z,96259.91
2019-04-07T08:50:52.848Z,96256.41
2019-04-07T08:53:21.693Z,96261.58
2019-04-07T08:55:54.387Z,96266.05
2019-04-07T08:58:25.843Z,96264.19
2019-04-07T09:00:53.809Z,96267.89
2019-04-07T09:03:22.065Z,96263.09
2019-04-07T09:05:51.355Z,96257.35
2019-04-07T09:08:20.421Z,96253.66
2019-04-07T09:10:53.838Z,96262.16
2019-04-07T09:13:22.469Z,96262.36
2019-04-07T09:15:55.631Z,96261.98
2019-04-07T09:18:51.633Z,96258.55
2019-04-07T09:21:38.673Z,96262.91
2019-04-07T09:24:05.030Z,96263.55
2019-04-07T09:26:35.511Z,96261.34
2019-04-07T09:29:11.649Z,96260.69
2019-04-07T09:31:41.626Z,96263.09
2019-04-07T09:34:18.217Z,96264.02
2019-04-07T09:36:52.108Z,96260.50
2019-04-07T09:39:24.777Z,96261.24
2019-04-07T09:42:00.955Z,96259.58
2019-04-07T09:44:36.011Z,96264.00
2019-04-07T09:47:07.842Z,96264.95
2019-04-07T09:49:46.172Z,96264.55
2019-04-07T09:52:22.131Z,96265.65
2019-04-07T09:54:57.557Z,96270.03
2019-04-07T09:57:27.595Z,96270.60
2019-04-07T09:59:57.614Z,96275.17
2019-04-07T10:02:35.489Z,96269.87
2019-04-07T10:05:24.103Z,96269.73
2019-04-07T10:08:07.114Z,96262.18
2019-04-07T10:10:43.661Z,96266.41
2019-04-07T10:13:25.678Z,96268.11
2019-04-07T10:16:12.052Z,96266.66
2019-04-07T10:18:58.366Z,96266.40
2019-04-07T10:21:44.892Z,96266.25
2019-04-07T10:24:31.494Z,96266.77
2019-04-07T10:27:01.835Z,96261.84
2019-04-07T10:29:31.911Z,96275.63
2019-04-07T10:32:16.852Z,96267.29
2019-04-07T10:35:02.470Z,96265.06
2019-04-07T10:37:36.111Z,96263.53
2019-04-07T10:40:20.344Z,96262.30
2019-04-07T10:42:51.416Z,96259.97
2019-04-07T10:45:24.988Z,96270.67
2019-04-07T10:48:07.002Z,96265.98
2019-04-07T10:50:45.935Z,96267.65
2019-04-07T10:53:33.273Z,96269.56
2019-04-07T10:56:09.925Z,96247.64
2019-04-07T10:58:56.732Z,96266.80
2019-04-07T11:01:33.376Z,96260.09
2019-04-07T11:04:12.771Z,96264.78
2019-04-07T11:06:43.862Z,96260.19
2019-04-07T11:09:14.054Z,96257.65
2019-04-07T11:11:46.664Z,96264.92
2019-04-07T11:14:16.162Z,96264.05
2019-04-07T11:16:49.852Z,96268.59
2019-04-07T11:19:38.003Z,96268.92
2019-04-07T11:22:14.418Z,96273.53
2019-04-07T11:24:53.815Z,96268.88
2019-04-07T11:27:27.691Z,96274.02
2019-04-07T11:30:00.695Z,96280.73
2019-04-07T11:32:37.072Z,96276.27
2019-04-07T11:35:14.873Z,96267.59
2019-04-07T11:37:45.124Z,96273.55
2019-04-07T11:40:22.657Z,96269.79
2019-04-07T11:42:53.438Z,96271.09
2019-04-07T11:45:23.714Z,96267.30
2019-04-07T11:47:54.496Z,96267.30
2019-04-07T11:50:34.342Z,96267.45
2019-04-07T11:53:07.579Z,96269.73
2019-04-07T11:55:44.204Z,96269.25
2019-04-07T11:58:19.954Z,96270.47
2019-04-07T12:00:47.340Z,96268.97
2019-04-07T12:03:24.686Z,96268.59
2019-04-07T12:05:52.208Z,96269.90
2019-04-07T12:08:35.800Z,96276.90
2019-04-07T12:11:19.966Z,96272.00
2019-04-07T12:13:49.995Z,96268.80
2019-04-07T12:16:28.688Z,96272.14
2019-04-07T12:19:04.407Z,96274.16
2019-04-07T12:21:38.250Z,96273.91
2019-04-07T12:24:09.772Z,96272.57
2019-04-07T12:26:52.789Z,96271.38
2019-04-07T12:29:37.609Z,96271.61
2019-04-07T12:32:14.858Z,96269.00
2019-04-07T12:34:47.706Z,96270.08
2019-04-07T12:37:17.492Z,96268.66
2019-04-07T12:39:51.286Z,96272.69
2019-04-07T12:42:27.810Z,96261.07
2019-04-07T12:44:58.259Z,96257.64
2019-04-07T12:47:45.004Z,96264.64
2019-04-07T12:50:17.587Z,96264.55
2019-04-07T12:52:50.296Z,96263.49
2019-04-07T12:55:22.965Z,96253.09
2019-04-07T12:58:02.048Z,96251.80
2019-04-07T13:00:56.125Z,96252.77
2019-04-07T13:03:19.938Z,96251.80
2019-04-07T13:06:09.260Z,96257.11
2019-04-07T13:08:49.085Z,96257.02
2019-04-07T13:11:38.680Z,96249.80
2019-04-07T13:14:23.367Z,96255.25
2019-04-07T13:17:08.971Z,96247.08
2019-04-07T13:19:51.429Z,96252.40
2019-04-07T13:22:34.399Z,96264.33
2019-04-07T13:25:09.104Z,96255.91
2019-04-07T13:27:41.662Z,96260.66
2019-04-07T13:30:18.207Z,96255.56
2019-04-07T13:33:04.678Z,96255.92
2019-04-07T13:35:37.475Z,96248.72
2019-04-07T13:38:26.275Z,96252.26
2019-04-07T13:41:03.004Z,96252.16
2019-04-07T13:43:39.167Z,96250.25
2019-04-07T13:46:24.483Z,96252.26
2019-04-07T13:49:00.446Z,96269.67
2019-04-07T13:51:30.439Z,96259.59
2019-04-07T13:54:01.990Z,96263.04
2019-04-07T13:56:49.888Z,96270.86
2019-04-07T13:59:19.334Z,96257.21
2019-04-07T14:01:52.430Z,96261.13
2019-04-07T14:04:39.231Z,96260.19
2019-04-07T14:07:17.873Z,96256.98
2019-04-07T14:09:46.930Z,96266.47
2019-04-07T14:12:25.972Z,96270.38
2019-04-07T14:14:56.095Z,96276.39
2019-04-07T14:17:32.282Z,96273.78
2019-04-07T14:20:19.283Z,96270.59
2019-04-07T14:22:55.587Z,96263.50
2019-04-07T14:25:44.554Z,96272.41
2019-04-07T14:28:23.381Z,96272.31
2019-04-07T14:30:56.347Z,96268.87
2019-04-07T14:33:39.226Z,96273.25
2019-04-07T14:36:09.322Z,96273.85
2019-04-07T14:38:48.373Z,96275.95
2019-04-07T14:41:24.710Z,96272.89
2019-04-07T14:43:57.621Z,96272.64
2019-04-07T14:46:30.339Z,96274.41
2019-04-07T14:49:06.662Z,96274.41
2019-04-07T14:51:54.899Z,96277.61
2019-04-07T14:54:28.210Z,96274.30
2019-04-07T14:57:15.498Z,96268.71
2019-04-07T15:00:01.890Z,96270.02
2019-04-07T15:02:30.396Z,96270.73
2019-04-07T15:05:03.115Z,96274.52
2019-04-07T15:07:40.834Z,96276.98
2019-04-07T15:10:11.849Z,96279.59
2019-04-07T15:12:57.940Z,96271.98
2019-04-07T15:15:26.780Z,96276.81
2019-04-07T15:17:55.300Z,96280.50
2019-04-07T15:20:23.918Z,96282.55
2019-04-07T15:22:52.848Z,96279.67
2019-04-07T15:25:21.609Z,96286.93
2019-04-07T15:27:49.979Z,96287.75
2019-04-07T15:30:18.465Z,96286.93
2019-04-07T15:32:46.851Z,96287.27
2019-04-07T15:35:16.308Z,96284.09
2019-04-07T15:37:44.907Z,96288.00
2019-04-07T15:40:14.001Z,96287.61
2019-04-07T15:42:45.917Z,96285.71
2019-04-07T15:45:13.401Z,96295.28
2019-04-07T15:47:42.489Z,96295.42
2019-04-07T15:50:11.735Z,96292.37
2019-04-07T15:52:43.707Z,96295.42
2019-04-07T15:55:11.611Z,96302.31
2019-04-07T15:57:40.749Z,96304.06
2019-04-07T16:00:10.044Z,96307.59
2019-04-07T16:02:42.162Z,96311.36
2019-04-07T16:05:09.449Z,96310.16
2019-04-07T16:07:37.832Z,96309.30
2019-04-07T16:10:08.048Z,96314.14
2019-04-07T16:12:45.174Z,96326.45
2019-04-07T16:15:08.003Z,96320.82
2019-04-07T16:17:37.167Z,96325.50
2019-04-07T16:20:19.855Z,96326.65
2019-04-07T16:22:44.255Z,96320.83
2019-04-07T16:25:11.223Z,96316.55
2019-04-07T16:27:39.798Z,96328.84
2019-04-07T16:30:13.773Z,96334.48
2019-04-07T16:32:41.967Z,96337.89
2019-04-07T16:35:15.583Z,96333.23
2019-04-07T16:37:40.900Z,96338.47
2019-04-07T16:40:11.451Z,96340.25
2019-04-07T16:42:39.836Z,96341.05
2019-04-07T16:45:12.515Z,96345.38
2019-04-07T16:47:38.676Z,96341.28
2019-04-07T16:50:07.668Z,96326.92
2019-04-07T16:52:36.471Z,96349.27
2019-04-07T16:55:08.981Z,96357.86
2019-04-07T16:57:37.586Z,96354.57
2019-04-07T17:00:15.287Z,96355.94
2019-04-07T17:02:43.922Z,96354.27
2019-04-07T17:05:12.323Z,96353.77
2019-04-07T17:07:45.245Z,96358.25
2019-04-07T17:10:13.305Z,96356.98
2019-04-07T17:12:43.923Z,96362.67
2019-04-07T17:15:12.419Z,96363.89
2019-04-07T17:17:40.809Z,96370.79
2019-04-07T17:20:10.018Z,96372.13
2019-04-07T17:22:38.439Z,96369.93
2019-04-07T17:25:09.927Z,96387.05
2019-04-07T17:27:40.944Z,96385.86
2019-04-07T17:30:11.152Z,96387.64
2019-04-07T17:32:40.333Z,96382.82
2019-04-07T17:35:12.587Z,96387.83
2019-04-07T17:37:40.585Z,96389.13
2019-04-07T17:40:17.296Z,96401.95
2019-04-07T17:42:48.218Z,96401.03
2019-04-07T17:45:33.833Z,96399.00
2019-04-07T17:48:16.802Z,96399.73
2019-04-07T17:50:50.077Z,96403.17
2019-04-07T17:53:23.221Z,96405.67
2019-04-07T17:56:08.775Z,96407.44
2019-04-07T17:58:39.972Z,96408.56
2019-04-07T18:01:20.629Z,96413.94
2019-04-07T18:03:47.929Z,96424.98
2019-04-07T18:09:07.687Z,96430.33
2019-04-07T18:11:33.934Z,96430.61
2019-04-07T18:14:06.725Z,96430.78
2019-04-07T18:16:53.151Z,96426.81
2019-04-07T18:19:39.492Z,96434.72
2019-04-07T18:22:21.437Z,96431.95
2019-04-07T18:25:05.192Z,96432.31
2019-04-07T18:27:36.217Z,96425.83
2019-04-07T18:30:14.814Z,96427.31
2019-04-07T18:32:59.782Z,96434.31
2019-04-07T18:35:32.881Z,96419.69
2019-04-07T18:38:17.337Z,96443.66
2019-04-07T18:40:48.290Z,96429.27
2019-04-07T18:43:24.591Z,96451.30
2019-04-07T18:45:55.105Z,96448.41
2019-04-07T18:48:40.251Z,96458.13
2019-04-07T18:51:27.281Z,96457.38
2019-04-07T18:54:05.375Z,96461.05
2019-04-07T18:56:41.748Z,96464.20
2019-04-07T18:59:20.446Z,96461.05
2019-04-07T19:02:13.831Z,96459.53
2019-04-07T19:04:50.060Z,96465.79
2019-04-07T19:07:20.124Z,96463.45
2019-04-07T19:10:10.672Z,96462.80
2019-04-07T19:12:39.948Z,96472.20
2019-04-07T19:15:21.419Z,96470.98
2019-04-07T19:18:06.934Z,96462.56
2019-04-07T19:20:51.981Z,96474.77
2019-04-07T19:23:37.564Z,96472.67
2019-04-07T19:26:18.285Z,96473.22
2019-04-07T19:28:48.137Z,96469.42
2019-04-07T19:31:21.619Z,96467.83
2019-04-07T19:34:10.046Z,96466.78
2019-04-07T19:36:42.801Z,96465.95
2019-04-07T19:39:12.376Z,96467.77
2019-04-07T19:41:54.061Z,96470.16
2019-04-07T19:44:35.562Z,96462.56
2019-04-07T19:47:01.403Z,96468.80
2019-04-07T19:49:47.678Z,96470.88
2019-04-07T19:52:39.539Z,96476.71
2019-04-07T19:55:10.013Z,96473.63
2019-04-07T19:57:45.533Z,96473.40
2019-04-07T20:00:28.924Z,96471.28
2019-04-07T20:03:11.387Z,96478.96
2019-04-07T20:05:42.942Z,96469.52
2019-04-07T20:08:16.500Z,96471.52
2019-04-07T20:10:54.908Z,96469.34
2019-04-07T20:13:26.138Z,96466.83
2019-04-07T20:15:59.240Z,96474.36
2019-04-07T20:18:38.315Z,96472.32
2019-04-07T20:21:16.361Z,96475.20
2019-04-07T20:23:45.972Z,96473.31
2019-04-07T20:26:22.075Z,96476.05
2019-04-07T20:29:02.194Z,96476.13
2019-04-07T20:31:42.907Z,96479.19
2019-04-07T20:34:16.354Z,96483.06
2019-04-07T20:37:02.501Z,96476.76
2019-04-07T20:39:35.124Z,96472.21
2019-04-07T20:42:11.372Z,96473.11
2019-04-07T20:44:57.048Z,96478.67
2019-04-07T20:47:33.231Z,96475.00
2019-04-07T20:50:19.743Z,96477.81
2019-04-07T20:53:09.309Z,96473.50
2019-04-07T20:55:30.906Z,96472.76
2019-04-07T20:58:13.091Z,96468.17
2019-04-07T21:00:36.920Z,96463.42
2019-04-07T21:03:19.495Z,96465.92
2019-04-07T21:06:00.120Z,96466.23
2019-04-07T21:08:31.782Z,96463.05
2019-04-07T21:11:10.980Z,96460.00
2019-04-07T21:14:00.889Z,96454.55
2019-04-07T21:16:41.230Z,96439.05
2019-04-07T21:19:11.584Z,96454.22
2019-04-07T21:21:54.056Z,96457.88
2019-04-07T21:24:27.207Z,96454.55
2019-04-07T21:26:59.331Z,96457.72
2019-04-07T21:29:31.892Z,96460.45
2019-04-07T21:32:09.605Z,96460.16
2019-04-07T21:34:52.050Z,96455.08
2019-04-07T21:37:28.447Z,96456.80
2019-04-07T21:40:05.373Z,96457.58
2019-04-07T21:42:32.733Z,96464.64
2019-04-07T21:45:11.763Z,96459.79
2019-04-07T21:48:00.541Z,96460.77
2019-04-07T21:50:31.568Z,96462.89
2019-04-07T21:53:04.550Z,96459.53
2019-04-07T21:55:34.564Z,96462.41
2019-04-07T21:58:10.639Z,96445.06
2019-04-07T22:00:53.102Z,96464.14
2019-04-07T22:03:26.859Z,96469.91
2019-04-07T22:06:00.617Z,96479.08
2019-04-07T22:08:30.694Z,96476.65
2019-04-07T22:10:59.446Z,96480.91
2019-04-07T22:13:28.660Z,96482.70
2019-04-07T22:16:00.589Z,96479.44
2019-04-07T22:18:27.338Z,96483.77
2019-04-07T22:20:57.013Z,96484.81
2019-04-07T22:23:25.497Z,96490.91
2019-04-07T22:25:54.157Z,96492.69
2019-04-07T22:28:22.798Z,96501.25
2019-04-07T22:30:53.214Z,96509.66
2019-04-07T22:33:25.290Z,96508.25
2019-04-07T22:35:51.789Z,96510.07
2019-04-07T22:38:23.063Z,96506.20
2019-04-07T22:40:50.368Z,96502.54
2019-04-07T22:43:19.903Z,96500.16
2019-04-07T22:45:58.849Z,96501.36
2019-04-07T22:48:22.788Z,96509.73
2019-04-07T22:50:49.647Z,96517.63
2019-04-07T22:53:22.532Z,96507.02
2019-04-07T22:55:48.601Z,96510.63
2019-04-07T22:58:18.011Z,96508.70
2019-04-07T23:00:46.662Z,96507.29
2019-04-07T23:03:15.567Z,96510.39
2019-04-07T23:05:44.030Z,96511.81
2019-04-07T23:08:12.536Z,96514.59
2019-04-07T23:10:40.874Z,96513.44
2019-04-07T23:13:09.298Z,96513.23
2019-04-07T23:15:43.923Z,96515.94
2019-04-07T23:18:07.864Z,96514.48
2019-04-07T23:20:36.402Z,96518.93
2019-04-07T23:23:04.819Z,96517.37
2019-04-07T23:25:33.224Z,96518.79
2019-04-07T23:28:02.661Z,96520.08
2019-04-07T23:30:31.418Z,96519.81
2019-04-07T23:33:00.047Z,96520.45
2019-04-07T23:35:28.768Z,96521.44
2019-04-07T23:37:57.453Z,96517.89
2019-04-07T23:40:25.977Z,96525.75
2019-04-07T23:42:55.111Z,96529.48
2019-04-07T23:45:23.632Z,96535.92
2019-04-07T23:47:52.557Z,96533.47
2019-04-07T23:50:21.140Z,96534.05
2019-04-07T23:52:49.795Z,96537.64
2019-04-07T23:55:18.176Z,96535.19
2019-04-07T23:57:46.568Z,96535.13
